createdAt,value
2017-06-18T00:00:43.486Z,13.63
2017-06-18T00:01:43.530Z,13.53
2017-06-18T00:02:43.573Z,13.6
2017-06-18T00:03:43.607Z,13.57
2017-06-18T00:04:43.626Z,13.55
2017-06-18T00:05:43.675Z,13.48
2017-06-18T00:06:43.701Z,13.51
2017-06-18T00:07:43.735Z,13.54
2017-06-18T00:08:43.774Z,13.6
2017-06-18T00:09:43.803Z,13.65
2017-06-18T00:10:43.835Z,13.65
2017-06-18T00:11:43.858Z,13.63
2017-06-18T00:12:43.902Z,13.55
2017-06-18T00:13:43.950Z,13.48
2017-06-18T00:14:43.969Z,13.48
2017-06-18T00:15:44.023Z,13.51
2017-06-18T00:16:44.029Z,13.53
2017-06-18T00:17:44.071Z,13.47
2017-06-18T00:18:44.088Z,13.5
2017-06-18T00:19:44.116Z,13.5
2017-06-18T00:20:44.169Z,13.51
2017-06-18T00:21:44.221Z,13.45
2017-06-18T00:22:44.187Z,13.47
2017-06-18T00:23:44.275Z,13.35
2017-06-18T00:24:44.307Z,13.35
2017-06-18T00:25:44.321Z,13.31
2017-06-18T00:26:44.372Z,13.28
2017-06-18T00:27:44.414Z,13.2
2017-06-18T00:28:44.447Z,13.2
2017-06-18T00:29:44.470Z,13.24
2017-06-18T00:30:44.514Z,13.28
2017-06-18T00:31:44.532Z,13.25
2017-06-18T00:32:44.559Z,13.17
2017-06-18T00:33:44.604Z,13.17
2017-06-18T00:34:44.630Z,13.21
2017-06-18T00:35:44.677Z,13.2
2017-06-18T00:36:44.697Z,13.16
2017-06-18T00:37:44.727Z,13.16
2017-06-18T00:38:44.760Z,13.11
2017-06-18T00:39:44.822Z,13.24
2017-06-18T00:40:44.831Z,13.09
2017-06-18T00:41:44.873Z,13.1
2017-06-18T00:42:44.900Z,13.09
2017-06-18T00:43:44.931Z,13.13
2017-06-18T00:44:44.980Z,13.09
2017-06-18T00:45:45.006Z,13.17
2017-06-18T00:46:45.017Z,13.09
2017-06-18T00:47:45.071Z,13.03
2017-06-18T00:48:45.105Z,12.94
2017-06-18T00:49:45.138Z,12.92
2017-06-18T00:50:45.167Z,12.98
2017-06-18T00:51:45.210Z,12.98
2017-06-18T00:52:45.239Z,13.02
2017-06-18T00:53:45.271Z,12.89
2017-06-18T00:54:45.309Z,12.98
2017-06-18T00:55:45.339Z,12.98
2017-06-18T00:56:45.366Z,12.96
2017-06-18T00:57:45.406Z,12.92
2017-06-18T00:58:45.435Z,12.98
2017-06-18T00:59:45.483Z,12.98
2017-06-18T01:00:45.506Z,12.92
2017-06-18T01:01:45.523Z,12.94
2017-06-18T01:02:45.562Z,12.86
2017-06-18T01:03:45.606Z,12.88
2017-06-18T01:04:45.617Z,12.84
2017-06-18T01:05:45.674Z,12.81
2017-06-18T01:06:45.682Z,12.81
2017-06-18T01:07:45.726Z,12.74
2017-06-18T01:08:45.763Z,12.86
2017-06-18T01:09:45.800Z,12.84
2017-06-18T01:10:45.823Z,12.86
2017-06-18T01:11:45.858Z,12.83
2017-06-18T01:12:45.898Z,12.69
2017-06-18T01:13:45.906Z,12.74
2017-06-18T01:14:45.957Z,12.76
2017-06-18T01:15:45.991Z,12.71
2017-06-18T01:16:46.015Z,12.7
2017-06-18T01:17:46.059Z,12.66
2017-06-18T01:18:46.093Z,12.66
2017-06-18T01:19:46.123Z,12.71
2017-06-18T01:20:46.147Z,12.77
2017-06-18T01:21:46.189Z,12.74
2017-06-18T01:22:46.224Z,12.73
2017-06-18T01:23:46.257Z,12.74
2017-06-18T01:24:46.274Z,12.69
2017-06-18T01:25:46.318Z,12.71
2017-06-18T01:26:46.355Z,12.76
2017-06-18T01:27:46.396Z,12.74
2017-06-18T01:28:46.417Z,12.62
2017-06-18T01:29:46.453Z,12.62
2017-06-18T01:30:46.494Z,12.66
2017-06-18T01:31:46.504Z,12.69
2017-06-18T01:32:46.551Z,12.58
2017-06-18T01:33:46.579Z,12.63
2017-06-18T01:34:46.623Z,12.7
2017-06-18T01:35:46.649Z,12.66
2017-06-18T01:36:46.689Z,12.61
2017-06-18T01:37:46.718Z,12.59
2017-06-18T01:38:46.769Z,12.55
2017-06-18T01:39:46.782Z,12.56
2017-06-18T01:40:46.820Z,12.56
2017-06-18T01:41:46.824Z,12.59
2017-06-18T01:42:46.884Z,12.59
2017-06-18T01:43:46.924Z,12.55
2017-06-18T01:44:46.945Z,12.61
2017-06-18T01:45:46.991Z,12.58
2017-06-18T01:46:47.015Z,12.59
2017-06-18T01:47:47.051Z,12.56
2017-06-18T01:48:47.083Z,12.52
2017-06-18T01:49:47.123Z,12.56
2017-06-18T01:50:47.147Z,12.55
2017-06-18T01:51:47.147Z,12.58
2017-06-18T01:52:47.218Z,12.59
2017-06-18T01:53:47.228Z,12.63
2017-06-18T01:54:47.278Z,12.62
2017-06-18T01:55:47.295Z,12.56
2017-06-18T01:56:47.308Z,12.62
2017-06-18T01:57:47.355Z,12.58
2017-06-18T01:58:47.408Z,12.62
2017-06-18T01:59:47.413Z,12.61
2017-06-18T02:00:47.457Z,12.63
2017-06-18T02:01:47.507Z,12.63
2017-06-18T02:02:47.541Z,12.61
2017-06-18T02:03:47.537Z,12.61
2017-06-18T02:04:47.618Z,12.59
2017-06-18T02:05:47.640Z,12.59
2017-06-18T02:06:47.677Z,12.59
2017-06-18T02:07:47.686Z,12.59
2017-06-18T02:08:47.738Z,12.58
2017-06-18T02:09:47.764Z,12.59
2017-06-18T02:10:47.794Z,12.61
2017-06-18T02:11:47.831Z,12.61
2017-06-18T02:12:47.865Z,12.62
2017-06-18T02:13:47.885Z,12.61
2017-06-18T02:14:47.937Z,12.53
2017-06-18T02:15:47.962Z,12.59
2017-06-18T02:16:47.996Z,12.59
2017-06-18T02:17:48.035Z,12.58
2017-06-18T02:18:48.060Z,12.61
2017-06-18T02:19:48.095Z,12.63
2017-06-18T02:20:48.129Z,12.61
2017-06-18T02:21:48.162Z,12.62
2017-06-18T02:22:48.196Z,12.63
2017-06-18T02:23:48.216Z,12.56
2017-06-18T02:24:48.246Z,12.58
2017-06-18T02:25:48.299Z,12.65
2017-06-18T02:26:48.352Z,12.59
2017-06-18T02:27:48.358Z,12.61
2017-06-18T02:28:48.380Z,12.59
2017-06-18T02:29:48.422Z,12.65
2017-06-18T02:30:48.466Z,12.65
2017-06-18T02:31:48.479Z,12.61
2017-06-18T02:32:48.517Z,12.66
2017-06-18T02:33:48.555Z,12.62
2017-06-18T02:34:48.577Z,12.61
2017-06-18T02:35:48.630Z,12.55
2017-06-18T02:36:48.659Z,12.61
2017-06-18T02:37:48.686Z,12.59
2017-06-18T02:38:48.720Z,12.59
2017-06-18T02:39:48.759Z,12.65
2017-06-18T02:40:48.785Z,12.66
2017-06-18T02:41:48.818Z,12.69
2017-06-18T02:42:48.835Z,12.58
2017-06-18T02:43:48.884Z,12.58
2017-06-18T02:44:48.913Z,12.55
2017-06-18T02:45:48.951Z,12.62
2017-06-18T02:46:48.976Z,12.58
2017-06-18T02:47:49.017Z,12.51
2017-06-18T02:48:49.047Z,12.62
2017-06-18T02:49:49.085Z,12.59
2017-06-18T02:50:49.114Z,12.53
2017-06-18T02:51:49.150Z,12.56
2017-06-18T02:52:49.181Z,12.56
2017-06-18T02:53:49.201Z,12.51
2017-06-18T02:54:49.226Z,12.52
2017-06-18T02:55:49.281Z,12.47
2017-06-18T02:56:49.306Z,12.47
2017-06-18T02:57:49.340Z,12.56
2017-06-18T02:58:49.368Z,12.62
2017-06-18T02:59:49.398Z,12.59
2017-06-18T03:00:49.433Z,12.62
2017-06-18T03:01:49.469Z,12.52
2017-06-18T03:02:49.489Z,12.59
2017-06-18T03:03:49.553Z,12.52
2017-06-18T03:04:49.568Z,12.58
2017-06-18T03:05:49.623Z,12.48
2017-06-18T03:06:49.634Z,12.52
2017-06-18T03:07:49.696Z,12.51
2017-06-18T03:08:49.662Z,12.59
2017-06-18T03:09:49.735Z,12.62
2017-06-18T03:10:49.780Z,12.58
2017-06-18T03:11:49.788Z,12.53
2017-06-18T03:12:49.846Z,12.51
2017-06-18T03:13:49.867Z,12.48
2017-06-18T03:14:49.890Z,12.55
2017-06-18T03:15:49.934Z,12.48
2017-06-18T03:16:49.980Z,12.58
2017-06-18T03:17:49.977Z,12.56
2017-06-18T03:18:50.028Z,12.62
2017-06-18T03:19:50.066Z,12.58
2017-06-18T03:20:50.091Z,12.58
2017-06-18T03:21:50.133Z,12.59
2017-06-18T03:22:50.166Z,12.61
2017-06-18T03:23:50.194Z,12.58
2017-06-18T03:24:50.188Z,12.58
2017-06-18T03:25:50.260Z,12.61
2017-06-18T03:26:50.293Z,12.63
2017-06-18T03:27:50.324Z,12.63
2017-06-18T03:28:50.359Z,12.66
2017-06-18T03:29:50.361Z,12.7
2017-06-18T03:30:50.422Z,12.62
2017-06-18T03:31:50.418Z,12.61
2017-06-18T03:32:50.492Z,12.65
2017-06-18T03:33:50.514Z,12.62
2017-06-18T03:34:50.539Z,12.69
2017-06-18T03:35:50.586Z,12.61
2017-06-18T03:36:50.617Z,12.66
2017-06-18T03:37:50.646Z,12.63
2017-06-18T03:38:50.685Z,12.69
2017-06-18T03:39:50.712Z,12.66
2017-06-18T03:40:50.736Z,12.65
2017-06-18T03:41:50.767Z,12.73
2017-06-18T03:42:50.812Z,12.71
2017-06-18T03:43:50.838Z,12.65
2017-06-18T03:44:50.883Z,12.69
2017-06-18T03:45:50.912Z,12.66
2017-06-18T03:46:50.948Z,12.76
2017-06-18T03:47:50.980Z,12.78
2017-06-18T03:48:51.009Z,12.8
2017-06-18T03:49:51.041Z,12.84
2017-06-18T03:50:51.086Z,12.8
2017-06-18T03:51:51.110Z,12.81
2017-06-18T03:52:51.138Z,12.88
2017-06-18T03:53:51.180Z,12.83
2017-06-18T03:54:51.178Z,12.95
2017-06-18T03:55:51.228Z,12.98
2017-06-18T03:56:51.264Z,12.96
2017-06-18T03:57:51.286Z,12.96
2017-06-18T03:58:51.343Z,12.92
2017-06-18T03:59:51.383Z,12.94
2017-06-18T04:00:51.417Z,12.96
2017-06-18T04:01:51.500Z,13.1
2017-06-18T04:02:51.506Z,13.09
2017-06-18T04:03:51.567Z,13.16
2017-06-18T04:04:51.571Z,13.14
2017-06-18T04:05:51.579Z,13.2
2017-06-18T04:06:51.612Z,13.21
2017-06-18T04:07:51.681Z,13.32
2017-06-18T04:08:51.708Z,13.48
2017-06-18T04:09:51.764Z,13.53
2017-06-18T04:10:51.716Z,13.48
2017-06-18T04:11:51.803Z,13.7
2017-06-18T04:12:51.836Z,13.7
2017-06-18T04:13:51.849Z,13.93
2017-06-18T04:14:51.904Z,14.3
2017-06-18T04:15:51.949Z,14.86
2017-06-18T04:16:51.920Z,15.6
2017-06-18T04:17:52.005Z,16.45
2017-06-18T04:18:52.013Z,17.15
2017-06-18T04:19:52.072Z,17.58
2017-06-18T04:20:52.111Z,18.05
2017-06-18T04:21:52.118Z,18.39
2017-06-18T04:22:52.192Z,18.45
2017-06-18T04:23:52.218Z,18.63
2017-06-18T04:24:52.215Z,18.87
2017-06-18T04:25:52.313Z,19.45
2017-06-18T04:26:52.291Z,20.11
2017-06-18T04:27:52.379Z,20.94
2017-06-18T04:28:52.391Z,21.61
2017-06-18T04:29:52.439Z,22.15
2017-06-18T04:30:52.458Z,22.69
2017-06-18T04:31:52.524Z,22.97
2017-06-18T04:32:52.510Z,23.01
2017-06-18T04:33:52.570Z,22.57
2017-06-18T04:34:52.630Z,22
2017-06-18T04:35:52.620Z,21.37
2017-06-18T04:36:52.667Z,20.63
2017-06-18T04:37:52.747Z,20.1
2017-06-18T04:38:52.764Z,19.75
2017-06-18T04:39:52.827Z,19.35
2017-06-18T04:40:52.820Z,19.02
2017-06-18T04:41:52.898Z,18.68
2017-06-18T04:42:52.910Z,18.57
2017-06-18T04:43:52.942Z,18.45
2017-06-18T04:44:52.962Z,18.35
2017-06-18T04:45:53.013Z,18.54
2017-06-18T04:46:53.032Z,18.97
2017-06-18T04:47:53.126Z,19.72
2017-06-18T04:48:53.128Z,20.01
2017-06-18T04:49:53.126Z,20.18
2017-06-18T04:50:53.207Z,20.04
2017-06-18T04:51:53.243Z,19.97
2017-06-18T04:52:53.265Z,19.78
2017-06-18T04:53:53.325Z,19.65
2017-06-18T04:54:53.367Z,19.49
2017-06-18T04:55:53.376Z,19.25
2017-06-18T04:56:53.441Z,18.86
2017-06-18T04:57:53.503Z,18.69
2017-06-18T04:58:53.491Z,18.59
2017-06-18T04:59:53.574Z,18.54
2017-06-18T05:00:53.632Z,18.59
2017-06-18T05:01:53.626Z,18.53
2017-06-18T05:02:53.646Z,18.54
2017-06-18T05:03:53.730Z,18.57
2017-06-18T05:04:53.742Z,18.47
2017-06-18T05:05:53.762Z,18.38
2017-06-18T05:06:53.770Z,18.36
2017-06-18T05:07:53.843Z,18.44
2017-06-18T05:08:53.865Z,18.51
2017-06-18T05:09:53.895Z,18.84
2017-06-18T05:10:53.996Z,19.45
2017-06-18T05:11:54.010Z,19.64
2017-06-18T05:12:54.042Z,19.64
2017-06-18T05:13:54.063Z,19.55
2017-06-18T05:14:54.120Z,19.45
2017-06-18T05:15:54.136Z,19.53
2017-06-18T05:16:54.196Z,20.04
2017-06-18T05:17:54.233Z,21.01
2017-06-18T05:18:54.241Z,21.67
2017-06-18T05:19:54.310Z,22.11
2017-06-18T05:20:54.345Z,22.02
2017-06-18T05:21:54.335Z,21.76
2017-06-18T05:22:54.420Z,21.3
2017-06-18T05:23:54.408Z,20.97
2017-06-18T05:24:54.496Z,20.46
2017-06-18T05:25:54.538Z,20.08
2017-06-18T05:26:54.550Z,19.79
2017-06-18T05:27:54.596Z,19.55
2017-06-18T05:28:54.633Z,19.43
2017-06-18T05:29:54.685Z,19.25
2017-06-18T05:30:54.731Z,19.1
2017-06-18T05:31:54.742Z,19.12
2017-06-18T05:32:54.797Z,18.97
2017-06-18T05:33:54.843Z,19.09
2017-06-18T05:34:54.856Z,19.43
2017-06-18T05:35:54.892Z,19.79
2017-06-18T05:36:54.986Z,20.27
2017-06-18T05:37:54.996Z,20.66
2017-06-18T05:38:55.056Z,20.79
2017-06-18T05:39:55.053Z,20.74
2017-06-18T05:40:55.104Z,20.56
2017-06-18T05:41:55.165Z,20.38
2017-06-18T05:42:55.158Z,20.23
2017-06-18T05:43:55.245Z,19.97
2017-06-18T05:44:55.255Z,19.83
2017-06-18T05:45:55.265Z,19.78
2017-06-18T05:46:55.359Z,19.83
2017-06-18T05:47:55.347Z,19.82
2017-06-18T05:48:55.382Z,20.02
2017-06-18T05:49:55.442Z,20.4
2017-06-18T05:50:55.509Z,20.57
2017-06-18T05:51:55.551Z,20.86
2017-06-18T05:52:55.550Z,20.79
2017-06-18T05:53:55.624Z,20.86
2017-06-18T05:54:55.619Z,20.58
2017-06-18T05:55:55.648Z,20.54
2017-06-18T05:56:55.689Z,20.42
2017-06-18T05:57:55.742Z,20.34
2017-06-18T05:58:55.804Z,20.38
2017-06-18T05:59:55.856Z,20.53
2017-06-18T06:00:55.857Z,20.78
2017-06-18T06:01:55.873Z,20.98
2017-06-18T06:02:55.930Z,21.12
2017-06-18T06:03:55.949Z,20.98
2017-06-18T06:04:55.962Z,20.96
2017-06-18T06:05:56.047Z,20.78
2017-06-18T06:06:56.085Z,20.94
2017-06-18T06:07:56.123Z,21.51
2017-06-18T06:08:56.147Z,22.49
2017-06-18T06:09:56.221Z,23.21
2017-06-18T06:10:56.261Z,23.53
2017-06-18T06:11:56.249Z,23.45
2017-06-18T06:12:56.281Z,23.41
2017-06-18T06:13:56.352Z,23.62
2017-06-18T06:14:56.393Z,24.12
2017-06-18T06:15:56.402Z,25
2017-06-18T06:16:56.464Z,25.51
2017-06-18T06:17:56.499Z,25.99
2017-06-18T06:18:56.538Z,26.6
2017-06-18T06:19:56.550Z,27.23
2017-06-18T06:20:56.563Z,28.11
2017-06-18T06:21:56.665Z,28.97
2017-06-18T06:22:56.704Z,29.98
2017-06-18T06:23:56.713Z,31
2017-06-18T06:24:56.776Z,31.97
2017-06-18T06:25:56.828Z,32.81
2017-06-18T06:26:56.878Z,33.65
2017-06-18T06:27:56.898Z,34.34
2017-06-18T06:28:56.942Z,35.15
2017-06-18T06:29:56.981Z,35.77
2017-06-18T06:30:57.005Z,36.28
2017-06-18T06:31:57.068Z,36.65
2017-06-18T06:32:57.067Z,36.88
2017-06-18T06:33:57.138Z,37.22
2017-06-18T06:34:57.176Z,37.68
2017-06-18T06:35:57.219Z,37.91
2017-06-18T06:36:57.267Z,38.05
2017-06-18T06:37:57.330Z,37.94
2017-06-18T06:38:57.370Z,38
2017-06-18T06:39:57.382Z,38.35
2017-06-18T06:40:57.480Z,38.47
2017-06-18T06:41:57.475Z,38.52
2017-06-18T06:42:57.502Z,38.59
2017-06-18T06:43:57.562Z,38.7
2017-06-18T06:44:57.605Z,38.93
2017-06-18T06:45:57.677Z,39.04
2017-06-18T06:46:57.723Z,39.06
2017-06-18T06:47:57.743Z,39.28
2017-06-18T06:48:57.810Z,39.47
2017-06-18T06:49:57.850Z,39.56
2017-06-18T06:50:57.907Z,39.49
2017-06-18T06:51:57.970Z,39.22
2017-06-18T06:52:57.968Z,39.15
2017-06-18T06:53:58.033Z,39.27
2017-06-18T06:54:58.082Z,39.75
2017-06-18T06:55:58.130Z,40.21
2017-06-18T06:56:58.170Z,40.4
2017-06-18T06:57:58.195Z,40.67
2017-06-18T06:58:58.268Z,40.82
2017-06-18T06:59:58.316Z,41.03
2017-06-18T07:00:58.339Z,41.15
2017-06-18T07:01:58.362Z,41.45
2017-06-18T07:02:58.473Z,41.69
2017-06-18T07:03:58.472Z,41.73
2017-06-18T07:04:58.526Z,41.76
2017-06-18T07:05:58.561Z,41.59
2017-06-18T07:06:58.610Z,41.59
2017-06-18T07:07:58.703Z,41.68
2017-06-18T07:08:58.696Z,41.69
2017-06-18T07:09:58.764Z,41.83
2017-06-18T07:10:58.820Z,41.94
2017-06-18T07:11:58.839Z,41.88
2017-06-18T07:12:58.937Z,41.71
2017-06-18T07:13:58.981Z,41.59
2017-06-18T07:14:59.007Z,41.68
2017-06-18T07:15:59.023Z,41.96
2017-06-18T07:16:59.053Z,42.11
2017-06-18T07:17:59.096Z,42.26
2017-06-18T07:18:59.161Z,42.36
2017-06-18T07:19:59.274Z,42.51
2017-06-18T07:20:59.257Z,42.57
2017-06-18T07:21:59.336Z,42.42
2017-06-18T07:22:59.409Z,42.49
2017-06-18T07:23:59.401Z,42.86
2017-06-18T07:24:59.477Z,42.9
2017-06-18T07:25:59.530Z,41.89
2017-06-18T07:26:59.575Z,41.2
2017-06-18T07:27:59.635Z,41.19
2017-06-18T07:28:59.652Z,41.16
2017-06-18T07:29:59.664Z,41.16
2017-06-18T07:30:59.757Z,41.18
2017-06-18T07:31:59.767Z,41.57
2017-06-18T07:32:59.797Z,42.03
2017-06-18T07:33:59.865Z,42.42
2017-06-18T07:34:59.941Z,42.55
2017-06-18T07:35:59.964Z,41.71
2017-06-18T07:37:00.007Z,41
2017-06-18T07:38:00.079Z,41.16
2017-06-18T07:39:00.125Z,41.18
2017-06-18T07:40:00.146Z,40.67
2017-06-18T07:41:00.223Z,41.06
2017-06-18T07:42:00.245Z,41.87
2017-06-18T07:43:00.292Z,42.76
2017-06-18T07:44:00.387Z,43.58
2017-06-18T07:45:00.384Z,43.92
2017-06-18T07:46:00.488Z,43.99
2017-06-18T07:47:00.469Z,43.78
2017-06-18T07:48:00.528Z,43.73
2017-06-18T07:49:00.616Z,43.64
2017-06-18T07:50:00.672Z,43.36
2017-06-18T07:51:00.664Z,43.23
2017-06-18T07:52:00.746Z,43.46
2017-06-18T07:53:00.788Z,43.84
2017-06-18T07:54:00.866Z,43.99
2017-06-18T07:55:00.883Z,43.69
2017-06-18T07:56:00.961Z,43.8
2017-06-18T07:57:00.976Z,44.05
2017-06-18T07:58:01.036Z,44.52
2017-06-18T07:59:01.110Z,44.88
2017-06-18T08:00:01.111Z,44.49
2017-06-18T08:01:01.145Z,43.93
2017-06-18T08:02:01.194Z,44.17
2017-06-18T08:03:01.297Z,44.71
2017-06-18T08:04:01.289Z,45.16
2017-06-18T08:05:01.338Z,45.51
2017-06-18T08:06:01.455Z,45.82
2017-06-18T08:07:01.455Z,45
2017-06-18T08:08:01.501Z,43.92
2017-06-18T08:09:01.559Z,41.98
2017-06-18T08:10:01.596Z,39.94
2017-06-18T08:11:01.673Z,38.02
2017-06-18T08:12:01.687Z,36.47
2017-06-18T08:13:01.687Z,35.4
2017-06-18T08:14:01.790Z,34.64
2017-06-18T08:15:01.785Z,35.35
2017-06-18T08:16:01.824Z,36.58
2017-06-18T08:17:01.880Z,36.92
2017-06-18T08:18:01.951Z,36.46
2017-06-18T08:19:01.974Z,35.53
2017-06-18T08:20:02.047Z,34.72
2017-06-18T08:21:02.115Z,34.26
2017-06-18T08:22:02.160Z,35.06
2017-06-18T08:23:02.202Z,36.53
2017-06-18T08:24:02.279Z,38.05
2017-06-18T08:25:02.264Z,39.47
2017-06-18T08:26:02.291Z,41.03
2017-06-18T08:27:02.411Z,41.59
2017-06-18T08:28:02.422Z,41.31
2017-06-18T08:29:02.450Z,41.6
2017-06-18T08:30:02.523Z,41.59
2017-06-18T08:31:02.540Z,41.38
2017-06-18T08:32:02.613Z,40.85
2017-06-18T08:33:02.639Z,39.79
2017-06-18T08:34:02.717Z,38.56
2017-06-18T08:35:02.708Z,37.51
2017-06-18T08:36:02.794Z,37.15
2017-06-18T08:37:02.800Z,37.37
2017-06-18T08:38:02.885Z,38.49
2017-06-18T08:39:02.876Z,39.76
2017-06-18T08:40:03.008Z,41.03
2017-06-18T08:41:03.018Z,42.06
2017-06-18T08:42:03.072Z,43.07
2017-06-18T08:43:03.118Z,43.77
2017-06-18T08:44:03.143Z,44.3
2017-06-18T08:45:03.217Z,44.95
2017-06-18T08:46:03.205Z,45.16
2017-06-18T08:47:03.280Z,45.16
2017-06-18T08:48:03.307Z,44.91
2017-06-18T08:49:03.380Z,44.97
2017-06-18T08:50:03.482Z,45.26
2017-06-18T08:51:03.462Z,45.41
2017-06-18T08:52:03.578Z,45.44
2017-06-18T08:53:03.754Z,45.36
2017-06-18T08:54:03.624Z,45.64
2017-06-18T08:55:03.708Z,45.98
2017-06-18T08:56:03.722Z,46.28
2017-06-18T08:57:03.819Z,46.51
2017-06-18T08:58:03.803Z,46.59
2017-06-18T08:59:03.841Z,46.92
2017-06-18T09:00:03.887Z,47
2017-06-18T09:01:04.009Z,47.17
2017-06-18T09:02:03.985Z,47.33
2017-06-18T09:03:04.106Z,47.24
2017-06-18T09:04:04.087Z,47.29
2017-06-18T09:05:04.143Z,47.43
2017-06-18T09:06:04.216Z,47.43
2017-06-18T09:07:04.294Z,47.46
2017-06-18T09:08:04.312Z,47.51
2017-06-18T09:09:04.373Z,47.53
2017-06-18T09:10:04.417Z,47.49
2017-06-18T09:11:04.465Z,47.45
2017-06-18T09:12:04.483Z,47.51
2017-06-18T09:13:04.559Z,47.75
2017-06-18T09:14:04.616Z,47.87
2017-06-18T09:15:04.664Z,47.99
2017-06-18T09:16:04.722Z,48.03
2017-06-18T09:17:04.800Z,48
2017-06-18T09:18:04.821Z,48.16
2017-06-18T09:19:04.867Z,48.23
2017-06-18T09:20:04.950Z,48.31
2017-06-18T09:21:05.006Z,48.28
2017-06-18T09:22:05.051Z,48.28
2017-06-18T09:23:05.081Z,47.97
2017-06-18T09:24:05.149Z,48.02
2017-06-18T09:25:05.186Z,48.12
2017-06-18T09:26:05.313Z,48.03
2017-06-18T09:27:05.309Z,48.12
2017-06-18T09:28:05.361Z,48.15
2017-06-18T09:29:05.419Z,48.22
2017-06-18T09:30:05.440Z,48.3
2017-06-18T09:31:05.471Z,48.33
2017-06-18T09:32:05.543Z,48.33
2017-06-18T09:33:05.621Z,47.93
2017-06-18T09:34:05.650Z,47.87
2017-06-18T09:35:05.720Z,47.97
2017-06-18T09:36:05.801Z,48.18
2017-06-18T09:37:05.801Z,48.28
2017-06-18T09:38:05.895Z,48.34
2017-06-18T09:39:05.901Z,48.44
2017-06-18T09:40:06.012Z,48.42
2017-06-18T09:41:06.030Z,48.34
2017-06-18T09:42:06.117Z,48.31
2017-06-18T09:43:06.173Z,48.31
2017-06-18T09:44:06.226Z,48.34
2017-06-18T09:45:06.277Z,48.31
2017-06-18T09:46:06.328Z,48.21
2017-06-18T09:47:06.351Z,48.23
2017-06-18T09:48:06.412Z,48.3
2017-06-18T09:49:06.463Z,48.34
2017-06-18T09:50:06.528Z,48.23
2017-06-18T09:51:06.544Z,48.15
2017-06-18T09:52:06.619Z,48.18
2017-06-18T09:53:06.676Z,48.31
2017-06-18T09:54:06.715Z,48.45
2017-06-18T09:55:06.744Z,48.52
2017-06-18T09:56:06.814Z,48.49
2017-06-18T09:57:06.869Z,47.97
2017-06-18T09:58:06.923Z,47.69
2017-06-18T09:59:07.041Z,47.39
2017-06-18T10:00:07.217Z,47.31
2017-06-18T10:01:07.132Z,47.34
2017-06-18T10:02:07.176Z,47.51
2017-06-18T10:03:07.204Z,47.68
2017-06-18T10:04:07.227Z,47.7
2017-06-18T10:05:07.299Z,47.77
2017-06-18T10:06:07.329Z,48.03
2017-06-18T10:07:07.414Z,48.11
2017-06-18T10:08:07.492Z,48.12
2017-06-18T10:09:07.529Z,48.07
2017-06-18T10:10:07.628Z,48.15
2017-06-18T10:11:07.649Z,48.23
2017-06-18T10:12:07.636Z,48.33
2017-06-18T10:13:07.721Z,48.41
2017-06-18T10:14:07.816Z,48.38
2017-06-18T10:15:07.814Z,48.11
2017-06-18T10:16:07.876Z,47.85
2017-06-18T10:17:07.927Z,47.77
2017-06-18T10:18:07.998Z,47.8
2017-06-18T10:19:08.081Z,47.87
2017-06-18T10:20:08.119Z,47.81
2017-06-18T10:21:08.139Z,47.87
2017-06-18T10:22:08.187Z,47.99
2017-06-18T10:23:08.205Z,48.06
2017-06-18T10:24:08.312Z,48.06
2017-06-18T10:25:08.370Z,48
2017-06-18T10:26:08.425Z,48.04
2017-06-18T10:27:08.505Z,47.97
2017-06-18T10:28:08.496Z,48.06
2017-06-18T10:29:08.612Z,48.02
2017-06-18T10:30:08.590Z,47.82
2017-06-18T10:31:08.670Z,47.46
2017-06-18T10:32:08.731Z,47.05
2017-06-18T10:33:08.829Z,47.1
2017-06-18T10:34:08.810Z,47.14
2017-06-18T10:35:08.883Z,47.33
2017-06-18T10:36:08.958Z,47.38
2017-06-18T10:37:08.973Z,47.5
2017-06-18T10:38:09.026Z,47.53
2017-06-18T10:39:09.070Z,47.27
2017-06-18T10:40:09.127Z,46.59
2017-06-18T10:41:09.162Z,45.75
2017-06-18T10:42:09.258Z,45.19
2017-06-18T10:43:09.254Z,45.09
2017-06-18T10:44:09.325Z,45.12
2017-06-18T10:45:09.368Z,45.4
2017-06-18T10:46:09.426Z,45.55
2017-06-18T10:47:09.437Z,45.78
2017-06-18T10:48:09.505Z,45.93
2017-06-18T10:49:09.530Z,45.96
2017-06-18T10:50:09.613Z,46.04
2017-06-18T10:51:09.613Z,46.24
2017-06-18T10:52:09.680Z,46.18
2017-06-18T10:53:09.708Z,46.23
2017-06-18T10:54:09.752Z,46.18
2017-06-18T10:55:09.809Z,46.04
2017-06-18T10:56:09.851Z,45.91
2017-06-18T10:57:09.928Z,45.82
2017-06-18T10:58:09.908Z,45.67
2017-06-18T10:59:10.007Z,45.72
2017-06-18T11:00:10.211Z,45.75
2017-06-18T11:01:10.039Z,45.77
2017-06-18T11:02:10.142Z,45.78
2017-06-18T11:03:10.150Z,45.74
2017-06-18T11:04:10.251Z,45.59
2017-06-18T11:05:10.256Z,45.47
2017-06-18T11:06:10.298Z,45.34
2017-06-18T11:07:10.357Z,45.25
2017-06-18T11:08:10.350Z,45.16
2017-06-18T11:09:10.422Z,45.13
2017-06-18T11:10:10.488Z,45.16
2017-06-18T11:11:10.475Z,45.26
2017-06-18T11:12:10.573Z,45.25
2017-06-18T11:13:10.615Z,45.45
2017-06-18T11:14:10.639Z,45.32
2017-06-18T11:15:10.683Z,45.29
2017-06-18T11:16:10.721Z,45.36
2017-06-18T11:17:10.795Z,45.29
2017-06-18T11:18:10.802Z,45.18
2017-06-18T11:19:10.834Z,44.85
2017-06-18T11:20:10.919Z,44.66
2017-06-18T11:21:10.927Z,44.61
2017-06-18T11:22:11.004Z,44.55
2017-06-18T11:23:11.020Z,44.61
2017-06-18T11:24:11.056Z,44.46
2017-06-18T11:25:11.112Z,44.14
2017-06-18T11:26:11.145Z,43.9
2017-06-18T11:27:11.222Z,43.49
2017-06-18T11:28:11.212Z,42.94
2017-06-18T11:29:11.256Z,42.6
2017-06-18T11:30:11.308Z,41.73
2017-06-18T11:31:11.374Z,40.31
2017-06-18T11:32:11.426Z,38.78
2017-06-18T11:33:11.494Z,36.95
2017-06-18T11:34:11.491Z,35.47
2017-06-18T11:35:11.525Z,34.21
2017-06-18T11:36:11.561Z,33.17
2017-06-18T11:37:11.620Z,32.43
2017-06-18T11:38:11.651Z,31.77
2017-06-18T11:39:11.694Z,31.19
2017-06-18T11:40:11.787Z,30.66
2017-06-18T11:41:11.753Z,30.13
2017-06-18T11:42:11.802Z,29.69
2017-06-18T11:43:11.864Z,29.43
2017-06-18T11:44:11.903Z,29.1
2017-06-18T11:45:11.973Z,28.92
2017-06-18T11:46:12.031Z,28.64
2017-06-18T11:47:12.027Z,28.53
2017-06-18T11:48:12.125Z,28.42
2017-06-18T11:49:12.162Z,28.26
2017-06-18T11:50:12.146Z,28.16
2017-06-18T11:51:12.234Z,28.11
2017-06-18T11:52:12.283Z,27.89
2017-06-18T11:53:12.275Z,27.93
2017-06-18T11:54:12.331Z,27.79
2017-06-18T11:55:12.408Z,27.64
2017-06-18T11:56:12.406Z,27.59
2017-06-18T11:57:12.459Z,27.65
2017-06-18T11:58:12.478Z,27.53
2017-06-18T11:59:12.529Z,27.52
2017-06-18T12:00:12.566Z,27.42
2017-06-18T12:01:12.633Z,27.41
2017-06-18T12:02:12.660Z,27.36
2017-06-18T12:03:12.691Z,27.38
2017-06-18T12:04:12.719Z,27.36
2017-06-18T12:05:12.763Z,27.36
2017-06-18T12:06:12.828Z,27.34
2017-06-18T12:07:12.875Z,27.28
2017-06-18T12:08:12.880Z,27.27
2017-06-18T12:09:12.918Z,27.27
2017-06-18T12:10:13.027Z,27.23
2017-06-18T12:11:13.002Z,27.12
2017-06-18T12:12:13.068Z,26.96
2017-06-18T12:13:13.115Z,26.94
2017-06-18T12:14:13.093Z,26.97
2017-06-18T12:15:13.169Z,26.9
2017-06-18T12:16:13.212Z,26.76
2017-06-18T12:17:13.254Z,26.74
2017-06-18T12:18:13.305Z,26.71
2017-06-18T12:19:13.378Z,26.71
2017-06-18T12:20:13.354Z,26.63
2017-06-18T12:21:13.380Z,26.68
2017-06-18T12:22:13.475Z,26.59
2017-06-18T12:23:13.523Z,26.5
2017-06-18T12:24:13.513Z,26.53
2017-06-18T12:25:13.628Z,26.56
2017-06-18T12:26:13.628Z,26.57
2017-06-18T12:27:13.678Z,26.53
2017-06-18T12:28:13.721Z,26.47
2017-06-18T12:29:13.728Z,26.52
2017-06-18T12:30:13.805Z,26.52
2017-06-18T12:31:13.813Z,26.44
2017-06-18T12:32:13.854Z,26.5
2017-06-18T12:33:13.934Z,26.49
2017-06-18T12:34:13.991Z,26.35
2017-06-18T12:35:13.979Z,26.34
2017-06-18T12:36:14.018Z,26.34
2017-06-18T12:37:14.118Z,26.39
2017-06-18T12:38:14.124Z,26.38
2017-06-18T12:39:14.147Z,26.39
2017-06-18T12:40:14.179Z,26.37
2017-06-18T12:41:14.190Z,26.49
2017-06-18T12:42:14.309Z,26.39
2017-06-18T12:43:14.305Z,26.35
2017-06-18T12:44:14.362Z,26.35
2017-06-18T12:45:14.411Z,26.39
2017-06-18T12:46:14.422Z,26.34
2017-06-18T12:47:14.505Z,26.34
2017-06-18T12:48:14.506Z,26.34
2017-06-18T12:49:14.596Z,26.31
2017-06-18T12:50:14.614Z,26.3
2017-06-18T12:51:14.598Z,26.32
2017-06-18T12:52:14.661Z,26.37
2017-06-18T12:53:14.728Z,26.31
2017-06-18T12:54:14.785Z,26.32
2017-06-18T12:55:14.837Z,26.35
2017-06-18T12:56:14.799Z,26.31